createdAt,value
2018-11-14T00:00:05.497Z,100704.63
2018-11-14T00:00:43.370Z,100709.47
2018-11-14T00:01:21.234Z,100699.50
2018-11-14T00:01:59.095Z,100702.45
2018-11-14T00:02:38.063Z,100702.17
2018-11-14T00:03:15.928Z,100703.52
2018-11-14T00:03:53.908Z,100707.02
2018-11-14T00:04:31.814Z,100702.98
2018-11-14T00:05:10.435Z,100705.94
2018-11-14T00:05:48.284Z,100707.54
2018-11-14T00:06:26.174Z,100712.64
2018-11-14T00:07:04.091Z,100716.41
2018-11-14T00:07:42.567Z,100709.13
2018-11-14T00:08:21.305Z,100711.28
2018-11-14T00:08:59.996Z,100712.63
2018-11-14T00:09:39.839Z,100717.22
2018-11-14T00:10:18.727Z,100717.48
2018-11-14T00:10:57.061Z,100715.87
2018-11-14T00:11:35.714Z,100716.39
2018-11-14T00:12:14.668Z,100720.70
2018-11-14T00:12:53.485Z,100723.39
2018-11-14T00:13:32.031Z,100727.69
2018-11-14T00:14:10.346Z,100725.25
2018-11-14T00:14:48.251Z,100722.30
2018-11-14T00:15:27.297Z,100728.20
2018-11-14T00:16:05.179Z,100734.12
2018-11-14T00:16:43.357Z,100728.73
2018-11-14T00:17:21.419Z,100725.23
2018-11-14T00:17:59.331Z,100735.72
2018-11-14T00:18:38.328Z,100734.64
2018-11-14T00:19:16.707Z,100740.28
2018-11-14T00:19:55.656Z,100737.59
2018-11-14T00:20:34.422Z,100732.73
2018-11-14T00:21:12.378Z,100735.16
2018-11-14T00:21:50.731Z,100738.92
2018-11-14T00:22:28.759Z,100741.59
2018-11-14T00:23:06.728Z,100741.05
2018-11-14T00:23:44.704Z,100741.02
2018-11-14T00:24:22.593Z,100740.20
2018-11-14T00:25:00.480Z,100741.30
2018-11-14T00:25:38.503Z,100743.70
2018-11-14T00:26:16.698Z,100743.14
2018-11-14T00:26:54.664Z,100738.27
2018-11-14T00:27:32.656Z,100742.58
2018-11-14T00:28:10.529Z,100744.44
2018-11-14T00:28:48.704Z,100740.92
2018-11-14T00:29:26.918Z,100744.42
2018-11-14T00:30:05.029Z,100743.05
2018-11-14T00:30:43.042Z,100740.88
2018-11-14T00:31:21.123Z,100749.77
2018-11-14T00:31:59.073Z,100748.42
2018-11-14T00:32:36.919Z,100748.41
2018-11-14T00:33:15.130Z,100744.88
2018-11-14T00:33:55.228Z,100748.36
2018-11-14T00:34:33.462Z,100753.72
2018-11-14T00:35:12.028Z,100756.39
2018-11-14T00:35:49.929Z,100757.17
2018-11-14T00:36:28.035Z,100753.09
2018-11-14T00:37:06.218Z,100756.86
2018-11-14T00:37:44.897Z,100760.08
2018-11-14T00:38:22.747Z,100756.27
2018-11-14T00:39:00.813Z,100758.39
2018-11-14T00:39:38.715Z,100760.25
2018-11-14T00:40:17.785Z,100761.03
2018-11-14T00:40:56.563Z,100764.77
2018-11-14T00:41:34.684Z,100766.37
2018-11-14T00:42:12.751Z,100760.95
2018-11-14T00:42:51.102Z,100767.69
2018-11-14T00:43:28.994Z,100770.13
2018-11-14T00:44:06.980Z,100765.25
2018-11-14T00:44:44.792Z,100769.55
2018-11-14T00:45:23.896Z,100776.30
2018-11-14T00:46:02.609Z,100775.47
2018-11-14T00:46:40.704Z,100779.48
2018-11-14T00:47:18.869Z,100782.70
2018-11-14T00:47:56.910Z,100784.31
2018-11-14T00:48:34.754Z,100782.13
2018-11-14T00:49:12.632Z,100791.83
2018-11-14T00:49:50.815Z,100783.96
2018-11-14T00:50:28.731Z,100786.66
2018-11-14T00:51:06.528Z,100790.16
2018-11-14T00:51:45.566Z,100787.17
2018-11-14T00:52:23.571Z,100790.39
2018-11-14T00:53:01.836Z,100792.00
2018-11-14T00:53:39.631Z,100801.98
2018-11-14T00:54:17.404Z,100803.59
2018-11-14T00:54:55.392Z,100794.15
2018-11-14T00:55:33.271Z,100796.30
2018-11-14T00:56:11.261Z,100796.81
2018-11-14T00:56:50.168Z,100802.21
2018-11-14T00:57:28.251Z,100802.98
2018-11-14T00:58:06.480Z,100803.24
2018-11-14T00:58:44.360Z,100806.72
2018-11-14T00:59:22.539Z,100801.83
2018-11-14T01:00:00.447Z,100802.86
2018-11-14T01:00:38.535Z,100802.06
2018-11-14T01:01:16.642Z,100807.13
2018-11-14T01:01:55.098Z,100802.50
2018-11-14T01:02:33.232Z,100809.52
2018-11-14T01:03:12.651Z,100808.42
2018-11-14T01:03:50.538Z,100806.81
2018-11-14T01:04:28.508Z,100815.42
2018-11-14T01:05:06.437Z,100815.13
2018-11-14T01:05:45.579Z,100814.59
2018-11-14T01:06:23.632Z,100816.19
2018-11-14T01:07:01.706Z,100811.05
2018-11-14T01:07:40.019Z,100814.04
2018-11-14T01:08:18.395Z,100813.23
2018-11-14T01:08:56.319Z,100819.16
2018-11-14T01:09:34.378Z,100820.50
2018-11-14T01:10:15.088Z,100817.55
2018-11-14T01:10:53.543Z,100818.06
2018-11-14T01:11:31.528Z,100820.76
2018-11-14T01:12:09.534Z,100819.41
2018-11-14T01:12:48.842Z,100816.42
2018-11-14T01:13:26.690Z,100819.41
2018-11-14T01:14:04.608Z,100814.27
2018-11-14T01:14:42.436Z,100821.23
2018-11-14T01:15:21.817Z,100823.64
2018-11-14T01:15:59.609Z,100824.41
2018-11-14T01:16:37.829Z,100823.83
2018-11-14T01:17:15.749Z,100829.45
2018-11-14T01:17:53.912Z,100827.01
2018-11-14T01:18:31.893Z,100829.42
2018-11-14T01:19:11.118Z,100829.42
2018-11-14T01:19:48.918Z,100825.08
2018-11-14T01:20:26.814Z,100827.48
2018-11-14T01:21:05.476Z,100829.34
2018-11-14T01:21:43.336Z,100828.00
2018-11-14T01:22:21.339Z,100831.46
2018-11-14T01:22:59.163Z,100833.28
2018-11-14T01:23:37.087Z,100831.61
2018-11-14T01:24:15.380Z,100831.53
2018-11-14T01:24:53.340Z,100834.19
2018-11-14T01:25:31.961Z,100829.00
2018-11-14T01:26:10.158Z,100831.92
2018-11-14T01:26:47.986Z,100839.44
2018-11-14T01:27:25.991Z,100831.84
2018-11-14T01:28:03.835Z,100839.65
2018-11-14T01:28:41.753Z,100840.16
2018-11-14T01:29:19.579Z,100837.41
2018-11-14T01:29:57.396Z,100829.31
2018-11-14T01:30:35.745Z,100841.63
2018-11-14T01:31:13.659Z,100833.86
2018-11-14T01:31:51.552Z,100845.39
2018-11-14T01:32:29.410Z,100844.34
2018-11-14T01:33:07.435Z,100841.89
2018-11-14T01:33:45.432Z,100840.79
2018-11-14T01:34:23.447Z,100839.73
2018-11-14T01:35:01.417Z,100842.39
2018-11-14T01:35:39.344Z,100836.98
2018-11-14T01:36:17.435Z,100835.38
2018-11-14T01:36:56.048Z,100839.95
2018-11-14T01:37:34.452Z,100837.24
2018-11-14T01:38:14.697Z,100831.58
2018-11-14T01:38:52.609Z,100840.41
2018-11-14T01:39:30.686Z,100838.52
2018-11-14T01:40:11.743Z,100836.61
2018-11-14T01:40:49.855Z,100838.77
2018-11-14T01:41:27.827Z,100836.82
2018-11-14T01:42:05.624Z,100846.02
2018-11-14T01:42:43.616Z,100843.02
2018-11-14T01:43:22.598Z,100844.92
2018-11-14T01:44:02.949Z,100844.33
2018-11-14T01:44:40.768Z,100834.06
2018-11-14T01:45:20.812Z,100844.03
2018-11-14T01:45:58.669Z,100836.17
2018-11-14T01:46:36.768Z,100844.03
2018-11-14T01:47:14.607Z,100842.94
2018-11-14T01:47:55.844Z,100844.84
2018-11-14T01:48:34.124Z,100838.88
2018-11-14T01:49:12.556Z,100841.84
2018-11-14T01:49:50.426Z,100839.64
2018-11-14T01:50:28.236Z,100842.34
2018-11-14T01:51:06.135Z,100840.40
2018-11-14T01:51:44.439Z,100836.89
2018-11-14T01:52:22.402Z,100845.21
2018-11-14T01:53:00.406Z,100840.05
2018-11-14T01:53:38.412Z,100848.13
2018-11-14T01:54:16.236Z,100843.52
2018-11-14T01:54:55.150Z,100842.42
2018-11-14T01:55:33.998Z,100843.46
2018-11-14T01:56:12.234Z,100834.50
2018-11-14T01:56:50.190Z,100843.66
2018-11-14T01:57:28.679Z,100837.39
2018-11-14T01:58:07.972Z,100840.56
2018-11-14T01:58:45.868Z,100842.62
2018-11-14T01:59:24.913Z,100846.31
2018-11-14T02:00:02.731Z,100841.16
2018-11-14T02:00:40.613Z,100842.96
2018-11-14T02:01:19.376Z,100849.94
2018-11-14T02:01:57.306Z,100850.38
2018-11-14T02:02:35.918Z,100845.73
2018-11-14T02:03:13.951Z,100848.16
2018-11-14T02:03:51.808Z,100851.07
2018-11-14T02:04:29.688Z,100848.56
2018-11-14T02:05:08.435Z,100848.47
2018-11-14T02:05:46.303Z,100848.95
2018-11-14T02:06:24.232Z,100846.73
2018-11-14T02:07:02.322Z,100845.63
2018-11-14T02:07:40.432Z,100847.23
2018-11-14T02:08:18.500Z,100847.79
2018-11-14T02:08:56.496Z,100853.94
2018-11-14T02:09:34.446Z,100847.36
2018-11-14T02:10:14.435Z,100855.38
2018-11-14T02:10:52.310Z,100853.37
2018-11-14T02:11:30.436Z,100852.19
2018-11-14T02:12:08.524Z,100849.92
2018-11-14T02:12:46.969Z,100851.72
2018-11-14T02:13:26.168Z,100850.86
2018-11-14T02:14:04.027Z,100847.55
2018-11-14T02:14:42.041Z,100849.64
2018-11-14T02:15:22.668Z,100844.72
2018-11-14T02:16:00.486Z,100846.87
2018-11-14T02:16:38.446Z,100851.55
2018-11-14T02:17:17.285Z,100845.83
2018-11-14T02:17:55.576Z,100853.16
2018-11-14T02:18:34.780Z,100850.50
2018-11-14T02:19:12.552Z,100847.84
2018-11-14T02:19:50.785Z,100849.26
2018-11-14T02:20:28.695Z,100850.36
2018-11-14T02:21:06.476Z,100860.09
2018-11-14T02:21:44.452Z,100854.98
2018-11-14T02:22:22.344Z,100849.62
2018-11-14T02:23:00.428Z,100854.42
2018-11-14T02:23:38.387Z,100855.78
2018-11-14T02:24:16.426Z,100860.34
2018-11-14T02:24:55.679Z,100858.13
2018-11-14T02:25:34.061Z,100855.67
2018-11-14T02:26:11.953Z,100854.56
2018-11-14T02:26:49.829Z,100857.52
2018-11-14T02:27:27.660Z,100856.41
2018-11-14T02:28:05.962Z,100852.05
2018-11-14T02:28:43.916Z,100850.70
2018-11-14T02:29:21.831Z,100851.25
2018-11-14T02:30:00.001Z,100855.06
2018-11-14T02:30:38.813Z,100850.25
2018-11-14T02:31:17.779Z,100847.05
2018-11-14T02:31:56.006Z,100857.44
2018-11-14T02:32:34.790Z,100848.27
2018-11-14T02:33:12.904Z,100852.33
2018-11-14T02:33:51.028Z,100848.62
2018-11-14T02:34:28.951Z,100851.88
2018-11-14T02:35:08.004Z,100849.23
2018-11-14T02:35:45.944Z,100848.70
2018-11-14T02:36:23.912Z,100846.34
2018-11-14T02:37:01.834Z,100852.06
2018-11-14T02:37:41.393Z,100846.26
2018-11-14T02:38:19.359Z,100850.63
2018-11-14T02:38:57.519Z,100846.31
2018-11-14T02:39:35.664Z,100846.06
2018-11-14T02:40:18.066Z,100848.27
2018-11-14T02:40:56.013Z,100851.78
2018-11-14T02:41:33.876Z,100850.37
2018-11-14T02:42:11.936Z,100844.77
2018-11-14T02:42:50.084Z,100847.41
2018-11-14T02:43:28.401Z,100849.27
2018-11-14T02:44:06.644Z,100850.02
2018-11-14T02:44:44.571Z,100849.27
2018-11-14T02:45:22.448Z,100854.03
2018-11-14T02:46:00.307Z,100848.31
2018-11-14T02:46:38.197Z,100853.97
2018-11-14T02:47:16.209Z,100856.83
2018-11-14T02:47:54.410Z,100854.59
2018-11-14T02:48:33.604Z,100858.10
2018-11-14T02:49:12.577Z,100856.89
2018-11-14T02:49:50.510Z,100856.28
2018-11-14T02:50:28.476Z,100856.66
2018-11-14T02:51:22.419Z,100856.36
2018-11-14T02:52:00.371Z,100852.02
2018-11-14T02:52:38.415Z,100858.22
2018-11-14T02:53:16.195Z,100859.16
2018-11-14T02:53:55.227Z,100855.03
2018-11-14T02:54:33.039Z,100855.16
2018-11-14T02:55:12.630Z,100853.47
2018-11-14T02:55:56.493Z,100858.78
2018-11-14T02:56:34.671Z,100854.03
2018-11-14T02:57:13.797Z,100853.11
2018-11-14T02:57:51.718Z,100849.97
2018-11-14T02:58:29.817Z,100846.37
2018-11-14T02:59:08.002Z,100844.15
2018-11-14T02:59:46.033Z,100850.13
2018-11-14T03:00:25.203Z,100841.19
2018-11-14T03:01:03.031Z,100845.44
2018-11-14T03:01:40.973Z,100842.95
2018-11-14T03:02:18.860Z,100841.46
2018-11-14T03:02:56.683Z,100836.98
2018-11-14T03:03:34.626Z,100836.55
2018-11-14T03:04:12.460Z,100837.77
2018-11-14T03:04:50.475Z,100836.45
2018-11-14T03:05:28.841Z,100837.41
2018-11-14T03:06:06.811Z,100834.55
2018-11-14T03:06:44.901Z,100834.17
2018-11-14T03:07:24.882Z,100831.03
2018-11-14T03:08:02.688Z,100833.33
2018-11-14T03:08:41.034Z,100827.52
2018-11-14T03:09:19.033Z,100829.84
2018-11-14T03:09:56.923Z,100828.73
2018-11-14T03:10:35.147Z,100835.69
2018-11-14T03:11:13.279Z,100832.66
2018-11-14T03:11:51.125Z,100834.50
2018-11-14T03:12:29.430Z,100836.38
2018-11-14T03:13:07.311Z,100830.31
2018-11-14T03:13:47.506Z,100829.38
2018-11-14T03:14:26.083Z,100831.53
2018-11-14T03:15:03.995Z,100832.58
2018-11-14T03:15:42.000Z,100832.89
2018-11-14T03:16:21.020Z,100829.86
2018-11-14T03:16:58.902Z,100832.33
2018-11-14T03:17:36.749Z,100833.93
2018-11-14T03:18:15.428Z,100836.33
2018-11-14T03:18:54.243Z,100830.17
2018-11-14T03:19:32.094Z,100835.19
2018-11-14T03:20:12.538Z,100831.55
2018-11-14T03:20:51.289Z,100831.06
2018-11-14T03:21:29.283Z,100835.03
2018-11-14T03:22:07.534Z,100834.62
2018-11-14T03:22:45.396Z,100837.16
2018-11-14T03:23:23.410Z,100829.92
2018-11-14T03:24:01.931Z,100831.32
2018-11-14T03:24:39.785Z,100826.27
2018-11-14T03:25:17.850Z,100824.92
2018-11-14T03:25:55.831Z,100832.57
2018-11-14T03:26:33.863Z,100824.43
2018-11-14T03:27:11.863Z,100823.31
2018-11-14T03:27:50.358Z,100828.25
2018-11-14T03:28:28.332Z,100822.83
2018-11-14T03:29:06.223Z,100821.47
2018-11-14T03:29:44.248Z,100818.02
2018-11-14T03:30:22.177Z,100825.05
2018-11-14T03:31:00.123Z,100828.02
2018-11-14T03:31:38.197Z,100821.78
2018-11-14T03:32:16.340Z,100825.55
2018-11-14T03:32:54.241Z,100820.42
2018-11-14T03:33:32.165Z,100824.19
2018-11-14T03:34:10.532Z,100822.27
2018-11-14T03:34:48.383Z,100820.36
2018-11-14T03:35:26.755Z,100822.27
2018-11-14T03:36:08.645Z,100814.69
2018-11-14T03:36:46.642Z,100817.89
2018-11-14T03:37:25.054Z,100817.02
2018-11-14T03:38:03.410Z,100821.30
2018-11-14T03:38:41.981Z,100817.18
2018-11-14T03:39:20.567Z,100817.36
2018-11-14T03:39:59.064Z,100812.73
2018-11-14T03:40:37.063Z,100809.14
2018-11-14T03:41:15.259Z,100810.50
2018-11-14T03:41:53.121Z,100808.58
2018-11-14T03:42:31.351Z,100809.07
2018-11-14T03:43:10.565Z,100802.59
2018-11-14T03:43:48.817Z,100803.95
2018-11-14T03:44:26.634Z,100805.55
2018-11-14T03:45:04.528Z,100799.49
2018-11-14T03:45:42.408Z,100801.09
2018-11-14T03:46:20.497Z,100801.09
2018-11-14T03:46:59.861Z,100798.86
2018-11-14T03:47:37.742Z,100799.11
2018-11-14T03:48:15.866Z,100802.31
2018-11-14T03:48:53.813Z,100798.48
2018-11-14T03:49:31.732Z,100798.96
2018-11-14T03:50:10.636Z,100789.94
2018-11-14T03:50:48.975Z,100794.53
2018-11-14T03:51:26.786Z,100788.23
2018-11-14T03:52:05.010Z,100788.71
2018-11-14T03:52:43.071Z,100786.41
2018-11-14T03:53:21.147Z,100789.05
2018-11-14T03:53:59.467Z,100789.53
2018-11-14T03:54:37.265Z,100786.81
2018-11-14T03:55:15.128Z,100791.29
2018-11-14T03:55:53.133Z,100784.42
2018-11-14T03:56:31.040Z,100790.69
2018-11-14T03:57:08.996Z,100784.62
2018-11-14T03:57:47.081Z,100786.49
2018-11-14T03:58:26.276Z,100785.94
2018-11-14T03:59:05.033Z,100783.50
2018-11-14T03:59:43.245Z,100779.98
2018-11-14T04:00:21.249Z,100777.55
2018-11-14T04:00:59.099Z,100783.45
2018-11-14T04:01:36.996Z,100779.86
2018-11-14T04:02:16.073Z,100779.06
2018-11-14T04:02:54.182Z,100779.63
2018-11-14T04:03:32.291Z,100776.34
2018-11-14T04:04:10.363Z,100774.19
2018-11-14T04:04:48.295Z,100778.74
2018-11-14T04:05:26.227Z,100773.80
2018-11-14T04:06:04.403Z,100773.39
2018-11-14T04:06:42.352Z,100775.23
2018-11-14T04:07:20.367Z,100775.11
2018-11-14T04:07:58.319Z,100779.91
2018-11-14T04:08:36.235Z,100775.75
2018-11-14T04:09:16.225Z,100771.19
2018-11-14T04:09:54.225Z,100765.99
2018-11-14T04:10:32.279Z,100766.95
2018-11-14T04:11:11.211Z,100763.83
2018-11-14T04:11:49.176Z,100758.73
2018-11-14T04:12:27.191Z,100756.68
2018-11-14T04:13:05.116Z,100761.23
2018-11-14T04:13:43.397Z,100760.27
2018-11-14T04:14:21.300Z,100754.42
2018-11-14T04:14:59.186Z,100755.17
2018-11-14T04:15:37.119Z,100753.40
2018-11-14T04:16:15.258Z,100750.03
2018-11-14T04:16:53.303Z,100750.98
2018-11-14T04:17:31.220Z,100748.97
2018-11-14T04:18:09.142Z,100746.73
2018-11-14T04:18:47.574Z,100745.28
2018-11-14T04:19:25.442Z,100743.36
2018-11-14T04:20:03.252Z,100743.30
2018-11-14T04:20:41.152Z,100739.13
2018-11-14T04:21:19.107Z,100743.45
2018-11-14T04:21:56.911Z,100743.45
2018-11-14T04:22:34.922Z,100746.88
2018-11-14T04:23:12.875Z,100738.24
2018-11-14T04:23:52.837Z,100738.39
2018-11-14T04:24:30.698Z,100735.91
2018-11-14T04:25:11.087Z,100732.53
2018-11-14T04:25:49.232Z,100737.27
2018-11-14T04:26:27.257Z,100735.81
2018-11-14T04:27:05.341Z,100735.98
2018-11-14T04:27:43.801Z,100736.05
2018-11-14T04:28:22.459Z,100732.34
2018-11-14T04:29:00.635Z,100734.88
2018-11-14T04:29:38.623Z,100731.50
2018-11-14T04:30:18.995Z,100727.35
2018-11-14T04:30:57.351Z,100725.99
2018-11-14T04:31:35.178Z,100724.39
2018-11-14T04:32:13.032Z,100729.60
2018-11-14T04:32:51.030Z,100721.17
2018-11-14T04:33:30.145Z,100723.66
2018-11-14T04:34:08.978Z,100730.80
2018-11-14T04:34:47.340Z,100722.95
2018-11-14T04:35:25.264Z,100720.98
2018-11-14T04:36:03.219Z,100721.40
2018-11-14T04:36:41.169Z,100717.50
2018-11-14T04:37:19.203Z,100715.83
2018-11-14T04:37:57.120Z,100714.79
2018-11-14T04:38:35.037Z,100715.41
2018-11-14T04:39:14.642Z,100717.09
2018-11-14T04:39:53.177Z,100709.27
2018-11-14T04:40:31.675Z,100711.75
2018-11-14T04:41:11.661Z,100713.11
2018-11-14T04:41:50.210Z,100703.82
2018-11-14T04:42:28.007Z,100712.31
2018-11-14T04:43:05.891Z,100710.71
2018-11-14T04:43:43.770Z,100712.16
2018-11-14T04:44:21.604Z,100705.36
2018-11-14T04:44:59.630Z,100708.17
2018-11-14T04:45:37.708Z,100706.02
2018-11-14T04:46:16.188Z,100701.46
2018-11-14T04:46:54.142Z,100707.76
2018-11-14T04:47:32.260Z,100708.88
2018-11-14T04:48:10.658Z,100707.20
2018-11-14T04:48:49.512Z,100710.01
2018-11-14T04:49:27.658Z,100707.38
2018-11-14T04:50:05.504Z,100698.13
2018-11-14T04:50:43.447Z,100701.73
2018-11-14T04:51:21.511Z,100700.92
2018-11-14T04:53:03.128Z,100698.86
2018-11-14T04:53:40.936Z,100699.66
2018-11-14T04:54:18.717Z,100693.51
2018-11-14T04:54:56.634Z,100700.03
2018-11-14T04:55:34.613Z,100688.45
2018-11-14T04:56:12.476Z,100690.70
2018-11-14T04:56:50.648Z,100692.94
2018-11-14T04:57:30.173Z,100683.98
2018-11-14T04:58:08.151Z,100682.39
2018-11-14T04:58:45.960Z,100681.59
2018-11-14T04:59:23.858Z,100679.99
2018-11-14T05:00:01.731Z,100681.12
2018-11-14T05:00:39.560Z,100675.41
2018-11-14T05:01:18.228Z,100676.53
2018-11-14T05:01:56.088Z,100676.30
2018-11-14T05:02:34.023Z,100681.26
2018-11-14T05:03:12.827Z,100675.59
2018-11-14T05:03:52.144Z,100669.11
2018-11-14T05:04:30.156Z,100668.31
2018-11-14T05:05:10.170Z,100667.52
2018-11-14T05:05:48.044Z,100673.27
2018-11-14T05:06:25.899Z,100669.91
2018-11-14T05:07:05.101Z,100675.82
2018-11-14T05:07:43.254Z,100672.22
2018-11-14T05:08:21.182Z,100672.45
2018-11-14T05:08:59.003Z,100676.21
2018-11-14T05:09:36.971Z,100674.56
2018-11-14T05:10:18.060Z,100672.55
2018-11-14T05:10:56.140Z,100676.63
2018-11-14T05:11:34.107Z,100673.91
2018-11-14T05:12:11.960Z,100673.91
2018-11-14T05:12:50.367Z,100672.31
2018-11-14T05:13:29.199Z,100670.72
2018-11-14T05:14:07.176Z,100671.84
2018-11-14T05:14:46.000Z,100667.20
2018-11-14T05:15:25.192Z,100669.36
2018-11-14T05:16:03.495Z,100666.40
2018-11-14T05:16:41.755Z,100662.56
2018-11-14T05:17:20.339Z,100660.64
2018-11-14T05:17:58.644Z,100661.67
2018-11-14T05:18:36.659Z,100655.34
2018-11-14T05:19:14.668Z,100654.46
2018-11-14T05:19:53.108Z,100652.22
2018-11-14T05:20:31.068Z,100647.02
2018-11-14T05:21:08.823Z,100652.95
2018-11-14T05:21:46.645Z,100652.06
2018-11-14T05:22:24.471Z,100656.30
2018-11-14T05:23:02.539Z,100649.08
2018-11-14T05:23:41.716Z,100651.00
2018-11-14T05:24:19.801Z,100646.36
2018-11-14T05:24:57.544Z,100646.03
2018-11-14T05:25:35.380Z,100645.09
2018-11-14T05:26:14.274Z,100647.66
2018-11-14T05:26:52.075Z,100641.19
2018-11-14T05:27:29.931Z,100644.70
2018-11-14T05:28:07.848Z,100648.31
2018-11-14T05:28:46.674Z,100647.98
2018-11-14T05:29:24.725Z,100636.55
2018-11-14T05:30:02.652Z,100643.91
2018-11-14T05:30:40.655Z,100640.06
2018-11-14T05:31:19.124Z,100638.05
2018-11-14T05:31:57.239Z,100638.77
2018-11-14T05:32:35.448Z,100642.19
2018-11-14T05:33:13.334Z,100636.98
2018-11-14T05:33:51.307Z,100637.78
2018-11-14T05:34:29.965Z,100634.31
2018-11-14T05:35:08.551Z,100633.19
2018-11-14T05:35:46.368Z,100632.09
2018-11-14T05:36:24.939Z,100635.91
2018-11-14T05:37:02.886Z,100630.23
2018-11-14T05:37:41.598Z,100627.75
2018-11-14T05:38:19.519Z,100626.89
2018-11-14T05:38:57.500Z,100623.44
2018-11-14T05:39:35.589Z,100624.17
2018-11-14T05:40:19.590Z,100617.14
2018-11-14T05:40:58.354Z,100615.77
2018-11-14T05:41:37.025Z,100620.16
2018-11-14T05:42:16.248Z,100614.33
2018-11-14T05:42:54.883Z,100603.13
2018-11-14T05:43:32.755Z,100607.30
2018-11-14T05:44:10.675Z,100607.86
2018-11-14T05:44:48.891Z,100606.03
2018-11-14T05:45:28.076Z,100601.48
2018-11-14T05:46:06.027Z,100603.03
2018-11-14T05:46:43.818Z,100599.52
2018-11-14T05:47:21.786Z,100600.16
2018-11-14T05:47:59.662Z,100588.55
2018-11-14T05:48:37.483Z,100596.33
2018-11-14T05:49:15.794Z,100593.70
2018-11-14T05:49:55.219Z,100597.31
2018-11-14T05:50:33.931Z,100588.68
2018-11-14T05:51:11.810Z,100588.17
2018-11-14T05:51:49.798Z,100586.11
2018-11-14T05:52:27.704Z,100584.19
2018-11-14T05:53:06.204Z,100582.30
2018-11-14T05:53:44.272Z,100573.44
2018-11-14T05:54:22.268Z,100573.27
2018-11-14T05:55:01.089Z,100579.87
2018-11-14T05:55:38.967Z,100571.11
2018-11-14T05:56:17.298Z,100565.81
2018-11-14T05:56:55.287Z,100566.84
2018-11-14T05:57:33.194Z,100568.35
2018-11-14T05:58:11.869Z,100559.39
2018-11-14T05:58:49.775Z,100565.30
2018-11-14T05:59:27.737Z,100559.24
2018-11-14T06:00:06.023Z,100559.95
2018-11-14T06:00:44.382Z,100557.70
2018-11-14T06:01:22.319Z,100559.53
2018-11-14T06:02:00.128Z,100561.36
2018-11-14T06:02:38.166Z,100560.17
2018-11-14T06:03:22.752Z,100554.64
2018-11-14T06:04:00.686Z,100551.03
2018-11-14T06:04:38.610Z,100551.73
2018-11-14T06:05:16.552Z,100557.55
2018-11-14T06:05:55.167Z,100546.01
2018-11-14T06:06:33.248Z,100553.21
2018-11-14T06:07:11.169Z,100553.81
2018-11-14T06:07:49.117Z,100548.28
2018-11-14T06:08:26.965Z,100546.49
2018-11-14T06:09:05.275Z,100549.12
2018-11-14T06:09:43.338Z,100544.97
2018-11-14T06:10:21.137Z,100543.17
2018-11-14T06:10:58.904Z,100545.50
2018-11-14T06:11:36.819Z,100538.27
2018-11-14T06:12:15.024Z,100544.41
2018-11-14T06:12:52.974Z,100539.09
2018-11-14T06:13:30.800Z,100531.16
2018-11-14T06:14:08.674Z,100531.16
2018-11-14T06:14:46.793Z,100527.88
2018-11-14T06:15:25.135Z,100524.23
2018-11-14T06:16:04.288Z,100522.17
2018-11-14T06:16:42.218Z,100517.86
2018-11-14T06:17:20.251Z,100520.58
2018-11-14T06:18:00.097Z,100515.89
2018-11-14T06:18:38.045Z,100509.16
2018-11-14T06:19:15.934Z,100503.98
2018-11-14T06:19:53.806Z,100505.25
2018-11-14T06:20:31.647Z,100506.38
2018-11-14T06:21:10.153Z,100501.06
2018-11-14T06:21:48.572Z,100500.40
2018-11-14T06:22:27.351Z,100496.22
2018-11-14T06:23:05.439Z,100498.37
2018-11-14T06:23:43.559Z,100493.85
2018-11-14T06:24:21.393Z,100492.16
2018-11-14T06:25:03.015Z,100491.59
2018-11-14T06:25:41.535Z,100490.47
2018-11-14T06:26:20.029Z,100486.61
2018-11-14T06:26:58.053Z,100481.63
2018-11-14T06:27:41.790Z,100486.20
2018-11-14T06:28:20.088Z,100483.25
2018-11-14T06:28:58.746Z,100479.17
2018-11-14T06:29:36.617Z,100477.55
2018-11-14T06:30:15.600Z,100475.55
2018-11-14T06:30:53.811Z,100470.90
2018-11-14T06:31:31.663Z,100471.47
2018-11-14T06:32:09.848Z,100471.70
2018-11-14T06:32:47.705Z,100471.47
2018-11-14T06:33:25.662Z,100469.89
2018-11-14T06:34:03.494Z,100469.89
2018-11-14T06:34:41.350Z,100467.86
2018-11-14T06:35:19.529Z,100461.63
2018-11-14T06:35:57.552Z,100464.70
2018-11-14T06:36:35.482Z,100463.34
2018-11-14T06:37:13.358Z,100462.67
2018-11-14T06:37:52.337Z,100458.17
2018-11-14T06:38:30.239Z,100463.62
2018-11-14T06:39:10.635Z,100459.38
2018-11-14T06:39:49.406Z,100457.89
2018-11-14T06:40:27.236Z,100460.39
2018-11-14T06:41:05.152Z,100459.01
2018-11-14T06:41:43.853Z,100456.50
2018-11-14T06:42:21.888Z,100458.03
2018-11-14T06:42:59.672Z,100454.05
2018-11-14T06:43:38.227Z,100455.29
2018-11-14T06:44:16.950Z,100458.22
2018-11-14T06:44:55.765Z,100454.57
2018-11-14T06:45:34.777Z,100461.47
2018-11-14T06:46:13.222Z,100461.38
2018-11-14T06:46:51.908Z,100455.95
2018-11-14T06:47:32.697Z,100453.44
2018-11-14T06:48:10.850Z,100457.52
2018-11-14T06:48:48.763Z,100455.88
2018-11-14T06:49:26.987Z,100459.72
2018-11-14T06:50:06.059Z,100456.30
2018-11-14T06:50:44.024Z,100453.72
2018-11-14T06:51:21.824Z,100454.28
2018-11-14T06:51:59.818Z,100460.68
2018-11-14T06:52:39.159Z,100457.73
2018-11-14T06:53:17.112Z,100451.79
2018-11-14T06:53:56.569Z,100449.56
2018-11-14T06:54:34.574Z,100449.30
2018-11-14T06:55:14.548Z,100459.43
2018-11-14T06:55:52.444Z,100456.81
2018-11-14T06:56:30.280Z,100458.84
2018-11-14T06:57:08.225Z,100449.22
2018-11-14T06:57:46.463Z,100445.13
2018-11-14T06:58:24.602Z,100441.05
2018-11-14T06:59:02.500Z,100440.82
2018-11-14T06:59:40.920Z,100438.09
2018-11-14T07:00:25.664Z,100435.15
2018-11-14T07:01:03.712Z,100430.14
2018-11-14T07:01:42.275Z,100428.22
2018-11-14T07:02:20.336Z,100426.96
2018-11-14T07:02:58.959Z,100424.00
2018-11-14T07:03:37.758Z,100419.77
2018-11-14T07:04:15.754Z,100432.56
2018-11-14T07:04:54.683Z,100423.67
2018-11-14T07:05:32.665Z,100422.45
2018-11-14T07:06:09.988Z,100420.19
2018-11-14T07:06:48.914Z,100414.41
2018-11-14T07:07:26.755Z,100422.45
2018-11-14T07:08:05.305Z,100418.47
2018-11-14T07:08:43.298Z,100421.85
2018-11-14T07:09:21.476Z,100422.38
2018-11-14T07:09:59.447Z,100423.84
2018-11-14T07:10:38.686Z,100418.97
2018-11-14T07:11:16.544Z,100419.86
2018-11-14T07:11:55.526Z,100424.41
2018-11-14T07:12:33.624Z,100422.02
2018-11-14T07:13:12.780Z,100416.91
2018-11-14T07:13:50.798Z,100423.61
2018-11-14T07:14:28.643Z,100420.99
2018-11-14T07:15:06.644Z,100420.99
2018-11-14T07:15:45.042Z,100423.02
2018-11-14T07:16:22.843Z,100421.62
2018-11-14T07:17:01.678Z,100418.20
2018-11-14T07:17:39.593Z,100418.11
2018-11-14T07:18:17.540Z,100427.32